sensor_id;sensor_type;location;lat;lon;timestamp;P1;durP1;ratioP1;P2;durP2;ratioP2
42018;SDS011;27703;51.980;5.848;2022-11-18T00:01:29;1.80;;;0.30;;
42018;SDS011;27703;51.980;5.848;2022-11-18T00:03:54;1.70;;;0.30;;
42018;SDS011;27703;51.980;5.848;2022-11-18T00:06:21;2.92;;;0.32;;
42018;SDS011;27703;51.980;5.848;2022-11-18T00:08:49;2.08;;;0.60;;
42018;SDS011;27703;51.980;5.848;2022-11-18T00:11:16;2.85;;;0.40;;
42018;SDS011;27703;51.980;5.848;2022-11-18T00:14:02;1.30;;;0.38;;
42018;SDS011;27703;51.980;5.848;2022-11-18T00:16:44;1.42;;;0.40;;
42018;SDS011;27703;51.980;5.848;2022-11-18T00:19:11;0.80;;;0.30;;
42018;SDS011;27703;51.980;5.848;2022-11-18T00:21:37;1.13;;;0.20;;
42018;SDS011;27703;51.980;5.848;2022-11-18T00:24:02;2.25;;;0.40;;
42018;SDS011;27703;51.980;5.848;2022-11-18T00:26:28;3.40;;;0.32;;
42018;SDS011;27703;51.980;5.848;2022-11-18T00:28:53;1.88;;;0.38;;
42018;SDS011;27703;51.980;5.848;2022-11-18T00:31:19;2.40;;;0.40;;
42018;SDS011;27703;51.980;5.848;2022-11-18T00:33:44;4.45;;;0.50;;
42018;SDS011;27703;51.980;5.848;2022-11-18T00:36:10;1.63;;;0.30;;
42018;SDS011;27703;51.980;5.848;2022-11-18T00:38:37;3.53;;;0.35;;
42018;SDS011;27703;51.980;5.848;2022-11-18T00:41:04;2.78;;;0.45;;
42018;SDS011;27703;51.980;5.848;2022-11-18T00:43:31;1.13;;;0.20;;
42018;SDS011;27703;51.980;5.848;2022-11-18T00:45:57;2.03;;;0.22;;
42018;SDS011;27703;51.980;5.848;2022-11-18T00:48:23;1.67;;;0.30;;
42018;SDS011;27703;51.980;5.848;2022-11-18T00:51:04;1.77;;;0.35;;
42018;SDS011;27703;51.980;5.848;2022-11-18T00:53:35;1.55;;;0.30;;
42018;SDS011;27703;51.980;5.848;2022-11-18T00:56:00;1.50;;;0.25;;
42018;SDS011;27703;51.980;5.848;2022-11-18T00:58:26;2.45;;;0.32;;
42018;SDS011;27703;51.980;5.848;2022-11-18T01:00:51;1.92;;;0.30;;
42018;SDS011;27703;51.980;5.848;2022-11-18T01:03:18;3.03;;;0.60;;
42018;SDS011;27703;51.980;5.848;2022-11-18T01:05:44;2.13;;;0.40;;
42018;SDS011;27703;51.980;5.848;2022-11-18T01:08:10;3.05;;;0.40;;
42018;SDS011;27703;51.980;5.848;2022-11-18T01:10:37;3.20;;;0.30;;
42018;SDS011;27703;51.980;5.848;2022-11-18T01:13:04;2.20;;;0.30;;
42018;SDS011;27703;51.980;5.848;2022-11-18T01:15:50;2.53;;;0.38;;
42018;SDS011;27703;51.980;5.848;2022-11-18T01:18:18;3.63;;;0.40;;
42018;SDS011;27703;51.980;5.848;2022-11-18T01:20:46;1.50;;;0.30;;
42018;SDS011;27703;51.980;5.848;2022-11-18T01:23:13;2.40;;;0.40;;
42018;SDS011;27703;51.980;5.848;2022-11-18T01:25:40;1.67;;;0.35;;
42018;SDS011;27703;51.980;5.848;2022-11-18T01:28:07;1.90;;;0.30;;
42018;SDS011;27703;51.980;5.848;2022-11-18T01:30:34;2.47;;;0.30;;
42018;SDS011;27703;51.980;5.848;2022-11-18T01:33:01;2.40;;;0.40;;
42018;SDS011;27703;51.980;5.848;2022-11-18T01:35:27;1.40;;;0.30;;
42018;SDS011;27703;51.980;5.848;2022-11-18T01:37:54;3.92;;;0.52;;
42018;SDS011;27703;51.980;5.848;2022-11-18T01:40:19;2.75;;;0.50;;
42018;SDS011;27703;51.980;5.848;2022-11-18T01:42:45;3.95;;;0.57;;
42018;SDS011;27703;51.980;5.848;2022-11-18T01:47:51;2.05;;;0.35;;
42018;SDS011;27703;51.980;5.848;2022-11-18T01:50:23;3.47;;;0.47;;
42018;SDS011;27703;51.980;5.848;2022-11-18T01:52:49;1.33;;;0.30;;
42018;SDS011;27703;51.980;5.848;2022-11-18T01:55:18;2.08;;;0.60;;
42018;SDS011;27703;51.980;5.848;2022-11-18T01:57:49;1.65;;;0.32;;
42018;SDS011;27703;51.980;5.848;2022-11-18T02:00:18;1.80;;;0.40;;
42018;SDS011;27703;51.980;5.848;2022-11-18T02:02:43;2.92;;;0.40;;
42018;SDS011;27703;51.980;5.848;2022-11-18T02:05:10;3.45;;;0.38;;
42018;SDS011;27703;51.980;5.848;2022-11-18T02:07:36;3.33;;;0.50;;
42018;SDS011;27703;51.980;5.848;2022-11-18T02:10:05;0.93;;;0.30;;
42018;SDS011;27703;51.980;5.848;2022-11-18T02:12:31;3.53;;;0.50;;
42018;SDS011;27703;51.980;5.848;2022-11-18T02:14:58;1.23;;;0.40;;
42018;SDS011;27703;51.980;5.848;2022-11-18T02:33:48;4.38;;;0.40;;
42018;SDS011;27703;51.980;5.848;2022-11-18T02:36:26;2.33;;;0.40;;
42018;SDS011;27703;51.980;5.848;2022-11-18T02:38:56;1.40;;;0.35;;
42018;SDS011;27703;51.980;5.848;2022-11-18T02:41:28;2.20;;;0.30;;
42018;SDS011;27703;51.980;5.848;2022-11-18T02:44:01;2.05;;;0.35;;
42018;SDS011;27703;51.980;5.848;2022-11-18T02:46:37;2.22;;;0.40;;
42018;SDS011;27703;51.980;5.848;2022-11-18T02:49:05;2.70;;;0.57;;
42018;SDS011;27703;51.980;5.848;2022-11-18T02:51:47;0.80;;;0.30;;
42018;SDS011;27703;51.980;5.848;2022-11-18T02:54:14;2.75;;;0.40;;
42018;SDS011;27703;51.980;5.848;2022-11-18T02:56:44;1.60;;;0.30;;
42018;SDS011;27703;51.980;5.848;2022-11-18T02:59:10;6.90;;;0.82;;
42018;SDS011;27703;51.980;5.848;2022-11-18T03:01:41;2.53;;;0.40;;
42018;SDS011;27703;51.980;5.848;2022-11-18T03:04:06;5.22;;;0.60;;
42018;SDS011;27703;51.980;5.848;2022-11-18T03:06:36;1.48;;;0.40;;
42018;SDS011;27703;51.980;5.848;2022-11-18T03:11:30;0.90;;;0.35;;
42018;SDS011;27703;51.980;5.848;2022-11-18T03:14:05;2.78;;;0.60;;
42018;SDS011;27703;51.980;5.848;2022-11-18T03:16:40;2.88;;;0.30;;
42018;SDS011;27703;51.980;5.848;2022-11-18T03:19:26;1.20;;;0.30;;
42018;SDS011;27703;51.980;5.848;2022-11-18T03:24:59;2.47;;;0.30;;
42018;SDS011;27703;51.980;5.848;2022-11-18T03:30:26;1.50;;;0.30;;
42018;SDS011;27703;51.980;5.848;2022-11-18T03:32:56;1.08;;;0.30;;
42018;SDS011;27703;51.980;5.848;2022-11-18T03:35:26;1.55;;;0.40;;
42018;SDS011;27703;51.980;5.848;2022-11-18T03:37:58;2.58;;;0.40;;
42018;SDS011;27703;51.980;5.848;2022-11-18T03:40:29;1.75;;;0.40;;
42018;SDS011;27703;51.980;5.848;2022-11-18T03:42:58;2.42;;;0.40;;
42018;SDS011;27703;51.980;5.848;2022-11-18T03:45:41;1.95;;;0.30;;
42018;SDS011;27703;51.980;5.848;2022-11-18T03:48:14;2.65;;;0.50;;
42018;SDS011;27703;51.980;5.848;2022-11-18T03:50:45;1.30;;;0.32;;
42018;SDS011;27703;51.980;5.848;2022-11-18T03:53:15;2.95;;;0.40;;
42018;SDS011;27703;51.980;5.848;2022-11-18T03:55:43;1.70;;;0.45;;
42018;SDS011;27703;51.980;5.848;2022-11-18T03:58:17;3.72;;;0.30;;
42018;SDS011;27703;51.980;5.848;2022-11-18T04:01:10;1.70;;;0.30;;
42018;SDS011;27703;51.980;5.848;2022-11-18T04:03:39;2.97;;;0.40;;
42018;SDS011;27703;51.980;5.848;2022-11-18T04:06:09;1.65;;;0.30;;
42018;SDS011;27703;51.980;5.848;2022-11-18T04:08:54;3.97;;;0.50;;
42018;SDS011;27703;51.980;5.848;2022-11-18T04:11:25;0.70;;;0.28;;
42018;SDS011;27703;51.980;5.848;2022-11-18T04:14:15;3.88;;;0.40;;
42018;SDS011;27703;51.980;5.848;2022-11-18T04:16:44;1.45;;;0.40;;
42018;SDS011;27703;51.980;5.848;2022-11-18T04:19:15;0.75;;;0.28;;
42018;SDS011;27703;51.980;5.848;2022-11-18T04:21:41;0.98;;;0.30;;
42018;SDS011;27703;51.980;5.848;2022-11-18T04:24:06;0.90;;;0.30;;
42018;SDS011;27703;51.980;5.848;2022-11-18T04:26:32;2.35;;;0.35;;
42018;SDS011;27703;51.980;5.848;2022-11-18T04:28:58;1.88;;;0.40;;
42018;SDS011;27703;51.980;5.848;2022-11-18T04:31:23;2.88;;;0.40;;
42018;SDS011;27703;51.980;5.848;2022-11-18T04:33:49;1.65;;;0.30;;
42018;SDS011;27703;51.980;5.848;2022-11-18T04:36:14;2.88;;;0.40;;
42018;SDS011;27703;51.980;5.848;2022-11-18T04:38:40;2.80;;;0.30;;
42018;SDS011;27703;51.980;5.848;2022-11-18T04:41:05;1.75;;;0.40;;
42018;SDS011;27703;51.980;5.848;2022-11-18T04:43:31;1.98;;;0.40;;
42018;SDS011;27703;51.980;5.848;2022-11-18T04:45:56;1.33;;;0.30;;
42018;SDS011;27703;51.980;5.848;2022-11-18T04:48:22;1.40;;;0.40;;
42018;SDS011;27703;51.980;5.848;2022-11-18T04:50:48;2.20;;;0.50;;
42018;SDS011;27703;51.980;5.848;2022-11-18T04:53:13;4.55;;;0.30;;
42018;SDS011;27703;51.980;5.848;2022-11-18T04:55:39;1.30;;;0.30;;
42018;SDS011;27703;51.980;5.848;2022-11-18T04:58:04;3.47;;;0.40;;
42018;SDS011;27703;51.980;5.848;2022-11-18T05:00:30;3.50;;;0.47;;
42018;SDS011;27703;51.980;5.848;2022-11-18T05:02:55;5.07;;;0.40;;
42018;SDS011;27703;51.980;5.848;2022-11-18T05:05:21;1.63;;;0.40;;
42018;SDS011;27703;51.980;5.848;2022-11-18T05:07:46;3.15;;;0.40;;
42018;SDS011;27703;51.980;5.848;2022-11-18T05:10:12;2.00;;;0.50;;
42018;SDS011;27703;51.980;5.848;2022-11-18T05:12:37;2.80;;;0.32;;
42018;SDS011;27703;51.980;5.848;2022-11-18T05:15:16;1.27;;;0.50;;
42018;SDS011;27703;51.980;5.848;2022-11-18T05:17:44;4.07;;;0.50;;
42018;SDS011;27703;51.980;5.848;2022-11-18T05:20:10;1.30;;;0.40;;
42018;SDS011;27703;51.980;5.848;2022-11-18T05:22:36;2.33;;;0.40;;
42018;SDS011;27703;51.980;5.848;2022-11-18T05:25:02;5.63;;;0.40;;
42018;SDS011;27703;51.980;5.848;2022-11-18T05:27:28;2.15;;;0.40;;
42018;SDS011;27703;51.980;5.848;2022-11-18T05:29:53;1.70;;;0.43;;
42018;SDS011;27703;51.980;5.848;2022-11-18T05:32:19;3.75;;;0.60;;
42018;SDS011;27703;51.980;5.848;2022-11-18T05:34:44;2.08;;;0.50;;
42018;SDS011;27703;51.980;5.848;2022-11-18T05:37:10;3.65;;;0.47;;
42018;SDS011;27703;51.980;5.848;2022-11-18T05:39:36;4.63;;;0.40;;
42018;SDS011;27703;51.980;5.848;2022-11-18T05:42:02;3.47;;;0.60;;
42018;SDS011;27703;51.980;5.848;2022-11-18T05:44:46;3.75;;;0.47;;
42018;SDS011;27703;51.980;5.848;2022-11-18T05:47:12;2.35;;;0.60;;
42018;SDS011;27703;51.980;5.848;2022-11-18T05:49:37;1.92;;;0.47;;
42018;SDS011;27703;51.980;5.848;2022-11-18T05:52:03;3.20;;;0.60;;
42018;SDS011;27703;51.980;5.848;2022-11-18T05:54:29;4.40;;;0.38;;
42018;SDS011;27703;51.980;5.848;2022-11-18T05:56:55;2.00;;;0.50;;
42018;SDS011;27703;51.980;5.848;2022-11-18T05:59:21;3.60;;;0.45;;
42018;SDS011;27703;51.980;5.848;2022-11-18T06:04:25;1.83;;;0.50;;
42018;SDS011;27703;51.980;5.848;2022-11-18T06:07:14;4.97;;;0.70;;
42018;SDS011;27703;51.980;5.848;2022-11-18T06:09:51;3.35;;;0.50;;
42018;SDS011;27703;51.980;5.848;2022-11-18T06:12:21;1.70;;;0.50;;
42018;SDS011;27703;51.980;5.848;2022-11-18T06:14:52;2.55;;;0.50;;
42018;SDS011;27703;51.980;5.848;2022-11-18T06:17:29;1.50;;;0.40;;
42018;SDS011;27703;51.980;5.848;2022-11-18T06:20:00;2.03;;;0.40;;
42018;SDS011;27703;51.980;5.848;2022-11-18T06:22:26;2.72;;;0.40;;
42018;SDS011;27703;51.980;5.848;2022-11-18T06:24:52;1.60;;;0.50;;
42018;SDS011;27703;51.980;5.848;2022-11-18T06:27:18;1.63;;;0.50;;
42018;SDS011;27703;51.980;5.848;2022-11-18T06:29:44;2.85;;;0.60;;
42018;SDS011;27703;51.980;5.848;2022-11-18T06:32:09;2.10;;;0.52;;
42018;SDS011;27703;51.980;5.848;2022-11-18T06:34:35;3.67;;;0.50;;
42018;SDS011;27703;51.980;5.848;2022-11-18T06:37:10;3.28;;;0.60;;
42018;SDS011;27703;51.980;5.848;2022-11-18T06:39:39;5.85;;;0.73;;
42018;SDS011;27703;51.980;5.848;2022-11-18T06:42:05;1.77;;;0.50;;
42018;SDS011;27703;51.980;5.848;2022-11-18T06:44:30;1.67;;;0.50;;
42018;SDS011;27703;51.980;5.848;2022-11-18T06:46:56;2.60;;;0.60;;
42018;SDS011;27703;51.980;5.848;2022-11-18T06:49:25;1.38;;;0.40;;
42018;SDS011;27703;51.980;5.848;2022-11-18T06:51:51;1.50;;;1.15;;
42018;SDS011;27703;51.980;5.848;2022-11-18T06:54:17;3.70;;;0.77;;
42018;SDS011;27703;51.980;5.848;2022-11-18T06:56:43;3.35;;;1.38;;
42018;SDS011;27703;51.980;5.848;2022-11-18T06:59:08;3.00;;;0.98;;
42018;SDS011;27703;51.980;5.848;2022-11-18T07:01:35;4.68;;;1.27;;
42018;SDS011;27703;51.980;5.848;2022-11-18T07:04:02;2.90;;;0.75;;
42018;SDS011;27703;51.980;5.848;2022-11-18T07:06:30;4.28;;;0.70;;
42018;SDS011;27703;51.980;5.848;2022-11-18T07:08:58;2.63;;;0.85;;
42018;SDS011;27703;51.980;5.848;2022-11-18T07:11:25;3.60;;;0.60;;
42018;SDS011;27703;51.980;5.848;2022-11-18T07:13:51;2.33;;;0.60;;
42018;SDS011;27703;51.980;5.848;2022-11-18T07:18:44;1.95;;;0.50;;
42018;SDS011;27703;51.980;5.848;2022-11-18T07:21:11;4.60;;;0.47;;
42018;SDS011;27703;51.980;5.848;2022-11-18T07:23:38;1.80;;;0.43;;
42018;SDS011;27703;51.980;5.848;2022-11-18T07:26:04;3.15;;;0.60;;
42018;SDS011;27703;51.980;5.848;2022-11-18T07:28:30;3.63;;;0.63;;
42018;SDS011;27703;51.980;5.848;2022-11-18T07:31:06;2.95;;;0.70;;
42018;SDS011;27703;51.980;5.848;2022-11-18T07:33:40;2.08;;;0.50;;
42018;SDS011;27703;51.980;5.848;2022-11-18T07:36:07;1.58;;;0.50;;
42018;SDS011;27703;51.980;5.848;2022-11-18T07:41:07;1.23;;;0.50;;
42018;SDS011;27703;51.980;5.848;2022-11-18T07:49:04;3.10;;;0.68;;
42018;SDS011;27703;51.980;5.848;2022-11-18T07:51:32;2.20;;;0.50;;
42018;SDS011;27703;51.980;5.848;2022-11-18T07:53:59;2.45;;;0.60;;
42018;SDS011;27703;51.980;5.848;2022-11-18T07:56:25;2.92;;;0.63;;
42018;SDS011;27703;51.980;5.848;2022-11-18T07:58:51;3.15;;;0.68;;
42018;SDS011;27703;51.980;5.848;2022-11-18T08:01:18;5.22;;;0.93;;
42018;SDS011;27703;51.980;5.848;2022-11-18T08:03:45;2.83;;;0.50;;
42018;SDS011;27703;51.980;5.848;2022-11-18T08:06:11;2.20;;;0.50;;
42018;SDS011;27703;51.980;5.848;2022-11-18T08:08:39;1.40;;;0.55;;
42018;SDS011;27703;51.980;5.848;2022-11-18T08:11:06;1.85;;;0.65;;
42018;SDS011;27703;51.980;5.848;2022-11-18T08:13:34;4.38;;;0.60;;
42018;SDS011;27703;51.980;5.848;2022-11-18T08:16:00;1.70;;;0.70;;
42018;SDS011;27703;51.980;5.848;2022-11-18T08:18:26;1.38;;;0.52;;
42018;SDS011;27703;51.980;5.848;2022-11-18T08:20:53;5.07;;;1.00;;
42018;SDS011;27703;51.980;5.848;2022-11-18T08:23:18;2.67;;;0.85;;
42018;SDS011;27703;51.980;5.848;2022-11-18T08:25:44;2.08;;;0.80;;
42018;SDS011;27703;51.980;5.848;2022-11-18T08:28:10;3.03;;;0.73;;
42018;SDS011;27703;51.980;5.848;2022-11-18T08:30:37;2.70;;;0.65;;
42018;SDS011;27703;51.980;5.848;2022-11-18T08:33:03;3.72;;;0.70;;
42018;SDS011;27703;51.980;5.848;2022-11-18T08:35:30;8.45;;;0.70;;
42018;SDS011;27703;51.980;5.848;2022-11-18T08:37:56;4.43;;;1.48;;
42018;SDS011;27703;51.980;5.848;2022-11-18T08:40:21;3.83;;;0.63;;
42018;SDS011;27703;51.980;5.848;2022-11-18T08:42:47;2.58;;;0.65;;
42018;SDS011;27703;51.980;5.848;2022-11-18T08:45:13;4.75;;;0.93;;
42018;SDS011;27703;51.980;5.848;2022-11-18T08:47:39;5.25;;;1.20;;
42018;SDS011;27703;51.980;5.848;2022-11-18T08:50:08;4.30;;;1.42;;
42018;SDS011;27703;51.980;5.848;2022-11-18T08:52:36;7.15;;;1.90;;
42018;SDS011;27703;51.980;5.848;2022-11-18T08:55:02;4.38;;;1.35;;
42018;SDS011;27703;51.980;5.848;2022-11-18T08:57:28;6.13;;;1.40;;
42018;SDS011;27703;51.980;5.848;2022-11-18T08:59:53;1.92;;;0.93;;
42018;SDS011;27703;51.980;5.848;2022-11-18T09:02:20;3.80;;;1.70;;
42018;SDS011;27703;51.980;5.848;2022-11-18T09:04:47;3.95;;;1.00;;
42018;SDS011;27703;51.980;5.848;2022-11-18T09:07:13;4.40;;;1.35;;
42018;SDS011;27703;51.980;5.848;2022-11-18T09:09:39;5.63;;;2.15;;
42018;SDS011;27703;51.980;5.848;2022-11-18T09:12:04;8.07;;;1.50;;
42018;SDS011;27703;51.980;5.848;2022-11-18T09:14:30;5.63;;;1.25;;
42018;SDS011;27703;51.980;5.848;2022-11-18T09:16:56;4.32;;;1.60;;
42018;SDS011;27703;51.980;5.848;2022-11-18T09:19:22;6.05;;;1.10;;
42018;SDS011;27703;51.980;5.848;2022-11-18T09:21:47;7.00;;;1.42;;
42018;SDS011;27703;51.980;5.848;2022-11-18T09:24:13;4.97;;;1.65;;
42018;SDS011;27703;51.980;5.848;2022-11-18T09:26:39;6.30;;;1.90;;
42018;SDS011;27703;51.980;5.848;2022-11-18T09:29:05;3.53;;;1.13;;
42018;SDS011;27703;51.980;5.848;2022-11-18T09:31:30;4.45;;;1.45;;
42018;SDS011;27703;51.980;5.848;2022-11-18T09:33:59;6.72;;;2.10;;
42018;SDS011;27703;51.980;5.848;2022-11-18T09:36:25;4.70;;;1.35;;
42018;SDS011;27703;51.980;5.848;2022-11-18T09:38:51;6.13;;;1.10;;
42018;SDS011;27703;51.980;5.848;2022-11-18T09:47:01;4.88;;;1.05;;
42018;SDS011;27703;51.980;5.848;2022-11-18T09:49:48;5.68;;;1.90;;
42018;SDS011;27703;51.980;5.848;2022-11-18T09:52:16;8.95;;;1.45;;
42018;SDS011;27703;51.980;5.848;2022-11-18T09:54:45;6.65;;;1.55;;
42018;SDS011;27703;51.980;5.848;2022-11-18T09:57:13;4.75;;;0.90;;
42018;SDS011;27703;51.980;5.848;2022-11-18T09:59:40;2.88;;;1.08;;
42018;SDS011;27703;51.980;5.848;2022-11-18T10:02:16;6.25;;;1.95;;
42018;SDS011;27703;51.980;5.848;2022-11-18T10:05:14;4.82;;;1.25;;
42018;SDS011;27703;51.980;5.848;2022-11-18T10:10:14;4.60;;;1.65;;
42018;SDS011;27703;51.980;5.848;2022-11-18T10:12:51;3.35;;;1.48;;
42018;SDS011;27703;51.980;5.848;2022-11-18T10:15:33;5.53;;;1.35;;
42018;SDS011;27703;51.980;5.848;2022-11-18T10:23:28;3.72;;;1.25;;
42018;SDS011;27703;51.980;5.848;2022-11-18T10:25:58;2.05;;;0.68;;
42018;SDS011;27703;51.980;5.848;2022-11-18T10:28:28;3.67;;;0.95;;
42018;SDS011;27703;51.980;5.848;2022-11-18T10:31:08;3.67;;;1.33;;
42018;SDS011;27703;51.980;5.848;2022-11-18T10:33:35;4.10;;;1.60;;
42018;SDS011;27703;51.980;5.848;2022-11-18T10:38:42;5.82;;;1.10;;
42018;SDS011;27703;51.980;5.848;2022-11-18T10:41:09;1.63;;;0.80;;
42018;SDS011;27703;51.980;5.848;2022-11-18T10:43:45;2.22;;;0.75;;
42018;SDS011;27703;51.980;5.848;2022-11-18T10:46:18;6.20;;;1.25;;
42018;SDS011;27703;51.980;5.848;2022-11-18T10:51:33;5.65;;;1.50;;
42018;SDS011;27703;51.980;5.848;2022-11-18T10:54:07;3.15;;;1.38;;
42018;SDS011;27703;51.980;5.848;2022-11-18T10:56:49;4.40;;;1.17;;
42018;SDS011;27703;51.980;5.848;2022-11-18T10:59:28;3.17;;;1.17;;
42018;SDS011;27703;51.980;5.848;2022-11-18T11:04:24;5.53;;;0.82;;
42018;SDS011;27703;51.980;5.848;2022-11-18T11:06:51;4.47;;;1.63;;
42018;SDS011;27703;51.980;5.848;2022-11-18T11:09:29;6.32;;;2.30;;
42018;SDS011;27703;51.980;5.848;2022-11-18T11:11:56;5.85;;;1.80;;
42018;SDS011;27703;51.980;5.848;2022-11-18T11:14:26;5.55;;;1.45;;
42018;SDS011;27703;51.980;5.848;2022-11-18T11:19:53;3.67;;;1.25;;
42018;SDS011;27703;51.980;5.848;2022-11-18T11:22:23;6.60;;;1.33;;
42018;SDS011;27703;51.980;5.848;2022-11-18T11:24:48;7.18;;;2.28;;
42018;SDS011;27703;51.980;5.848;2022-11-18T11:30:01;3.35;;;1.45;;
42018;SDS011;27703;51.980;5.848;2022-11-18T11:37:55;9.02;;;1.95;;
42018;SDS011;27703;51.980;5.848;2022-11-18T11:40:26;4.90;;;1.30;;
42018;SDS011;27703;51.980;5.848;2022-11-18T11:48:52;5.40;;;1.63;;
42018;SDS011;27703;51.980;5.848;2022-11-18T11:56:46;5.63;;;1.50;;
42018;SDS011;27703;51.980;5.848;2022-11-18T12:04:25;4.85;;;1.20;;
42018;SDS011;27703;51.980;5.848;2022-11-18T12:07:14;5.47;;;1.30;;
42018;SDS011;27703;51.980;5.848;2022-11-18T12:18:15;7.10;;;1.38;;
42018;SDS011;27703;51.980;5.848;2022-11-18T12:21:06;4.40;;;1.38;;
42018;SDS011;27703;51.980;5.848;2022-11-18T12:23:32;7.20;;;1.50;;
42018;SDS011;27703;51.980;5.848;2022-11-18T12:26:03;6.13;;;1.40;;
42018;SDS011;27703;51.980;5.848;2022-11-18T12:33:54;5.43;;;1.25;;
42018;SDS011;27703;51.980;5.848;2022-11-18T12:36:35;3.95;;;0.98;;
42018;SDS011;27703;51.980;5.848;2022-11-18T12:44:45;6.00;;;1.10;;
42018;SDS011;27703;51.980;5.848;2022-11-18T12:47:16;4.32;;;0.98;;
42018;SDS011;27703;51.980;5.848;2022-11-18T12:55:10;5.70;;;0.95;;
42018;SDS011;27703;51.980;5.848;2022-11-18T12:57:42;8.85;;;1.30;;
42018;SDS011;27703;51.980;5.848;2022-11-18T13:02:52;7.38;;;1.63;;
42018;SDS011;27703;51.980;5.848;2022-11-18T13:05:19;5.50;;;2.75;;
42018;SDS011;27703;51.980;5.848;2022-11-18T13:07:56;5.07;;;1.20;;
42018;SDS011;27703;51.980;5.848;2022-11-18T13:10:48;6.95;;;1.90;;
42018;SDS011;27703;51.980;5.848;2022-11-18T13:13:42;6.60;;;1.63;;
42018;SDS011;27703;51.980;5.848;2022-11-18T13:16:16;4.88;;;1.73;;
42018;SDS011;27703;51.980;5.848;2022-11-18T13:19:02;4.85;;;1.73;;
42018;SDS011;27703;51.980;5.848;2022-11-18T13:21:28;2.80;;;1.35;;
42018;SDS011;27703;51.980;5.848;2022-11-18T13:24:17;6.57;;;1.67;;
42018;SDS011;27703;51.980;5.848;2022-11-18T13:32:01;3.50;;;0.95;;
42018;SDS011;27703;51.980;5.848;2022-11-18T13:34:39;6.13;;;1.05;;
42018;SDS011;27703;51.980;5.848;2022-11-18T13:37:27;8.10;;;1.48;;
42018;SDS011;27703;51.980;5.848;2022-11-18T13:39:54;7.28;;;1.17;;
42018;SDS011;27703;51.980;5.848;2022-11-18T13:42:24;5.75;;;0.80;;
42018;SDS011;27703;51.980;5.848;2022-11-18T13:44:55;1.98;;;0.60;;
42018;SDS011;27703;51.980;5.848;2022-11-18T13:52:45;5.53;;;1.20;;
42018;SDS011;27703;51.980;5.848;2022-11-18T13:55:22;7.82;;;1.20;;
42018;SDS011;27703;51.980;5.848;2022-11-18T13:58:24;2.17;;;0.80;;
42018;SDS011;27703;51.980;5.848;2022-11-18T14:01:20;7.90;;;0.90;;
42018;SDS011;27703;51.980;5.848;2022-11-18T14:03:49;7.00;;;1.23;;
42018;SDS011;27703;51.980;5.848;2022-11-18T14:06:27;4.45;;;1.58;;
42018;SDS011;27703;51.980;5.848;2022-11-18T14:14:34;8.05;;;2.08;;
42018;SDS011;27703;51.980;5.848;2022-11-18T14:19:50;5.40;;;1.83;;
42018;SDS011;27703;51.980;5.848;2022-11-18T14:22:24;3.58;;;1.50;;
42018;SDS011;27703;51.980;5.848;2022-11-18T14:24:58;4.90;;;1.38;;
42018;SDS011;27703;51.980;5.848;2022-11-18T14:29:57;7.68;;;1.80;;
42018;SDS011;27703;51.980;5.848;2022-11-18T14:32:24;9.98;;;1.77;;
42018;SDS011;27703;51.980;5.848;2022-11-18T14:34:57;5.30;;;1.20;;
42018;SDS011;27703;51.980;5.848;2022-11-18T14:37:23;2.75;;;0.98;;
42018;SDS011;27703;51.980;5.848;2022-11-18T14:39:54;4.53;;;1.33;;
42018;SDS011;27703;51.980;5.848;2022-11-18T14:42:20;4.70;;;1.00;;
42018;SDS011;27703;51.980;5.848;2022-11-18T14:44:47;6.60;;;0.70;;
42018;SDS011;27703;51.980;5.848;2022-11-18T14:47:23;2.08;;;0.70;;
42018;SDS011;27703;51.980;5.848;2022-11-18T14:49:52;4.40;;;0.95;;
42018;SDS011;27703;51.980;5.848;2022-11-18T14:52:18;2.42;;;0.70;;
42018;SDS011;27703;51.980;5.848;2022-11-18T14:54:43;3.78;;;0.80;;
42018;SDS011;27703;51.980;5.848;2022-11-18T14:57:09;5.20;;;1.60;;
42018;SDS011;27703;51.980;5.848;2022-11-18T14:59:39;6.97;;;1.40;;
42018;SDS011;27703;51.980;5.848;2022-11-18T15:02:05;3.90;;;1.35;;
42018;SDS011;27703;51.980;5.848;2022-11-18T15:04:38;4.60;;;1.10;;
42018;SDS011;27703;51.980;5.848;2022-11-18T15:07:04;3.25;;;1.15;;
42018;SDS011;27703;51.980;5.848;2022-11-18T15:09:30;3.30;;;1.40;;
42018;SDS011;27703;51.980;5.848;2022-11-18T15:11:55;5.53;;;1.42;;
42018;SDS011;27703;51.980;5.848;2022-11-18T15:14:21;4.18;;;1.05;;
42018;SDS011;27703;51.980;5.848;2022-11-18T15:16:46;4.10;;;0.90;;
42018;SDS011;27703;51.980;5.848;2022-11-18T15:19:13;3.80;;;1.00;;
42018;SDS011;27703;51.980;5.848;2022-11-18T15:21:39;2.25;;;0.77;;
42018;SDS011;27703;51.980;5.848;2022-11-18T15:24:05;3.97;;;1.00;;
42018;SDS011;27703;51.980;5.848;2022-11-18T15:26:35;5.78;;;0.98;;
42018;SDS011;27703;51.980;5.848;2022-11-18T15:29:05;3.92;;;1.08;;
42018;SDS011;27703;51.980;5.848;2022-11-18T15:31:31;5.32;;;1.02;;
42018;SDS011;27703;51.980;5.848;2022-11-18T15:33:57;4.32;;;1.42;;
42018;SDS011;27703;51.980;5.848;2022-11-18T15:36:23;1.80;;;0.90;;
42018;SDS011;27703;51.980;5.848;2022-11-18T15:38:50;4.20;;;1.95;;
42018;SDS011;27703;51.980;5.848;2022-11-18T15:41:24;6.88;;;2.22;;
42018;SDS011;27703;51.980;5.848;2022-11-18T15:43:52;2.65;;;1.88;;
42018;SDS011;27703;51.980;5.848;2022-11-18T15:46:19;3.53;;;1.52;;
42018;SDS011;27703;51.980;5.848;2022-11-18T15:48:46;5.07;;;2.38;;
42018;SDS011;27703;51.980;5.848;2022-11-18T15:51:14;4.82;;;2.35;;
42018;SDS011;27703;51.980;5.848;2022-11-18T15:53:40;5.22;;;2.90;;
42018;SDS011;27703;51.980;5.848;2022-11-18T15:56:13;7.68;;;4.55;;
42018;SDS011;27703;51.980;5.848;2022-11-18T15:58:50;7.50;;;4.53;;
42018;SDS011;27703;51.980;5.848;2022-11-18T16:01:16;12.40;;;7.10;;
42018;SDS011;27703;51.980;5.848;2022-11-18T16:03:42;9.27;;;7.45;;
42018;SDS011;27703;51.980;5.848;2022-11-18T16:06:07;9.98;;;8.82;;
42018;SDS011;27703;51.980;5.848;2022-11-18T16:08:32;11.93;;;9.70;;
42018;SDS011;27703;51.980;5.848;2022-11-18T16:10:58;12.55;;;9.60;;
42018;SDS011;27703;51.980;5.848;2022-11-18T16:13:43;12.45;;;8.75;;
42018;SDS011;27703;51.980;5.848;2022-11-18T16:16:18;11.85;;;8.05;;
42018;SDS011;27703;51.980;5.848;2022-11-18T16:18:45;15.43;;;8.77;;
42018;SDS011;27703;51.980;5.848;2022-11-18T16:21:11;10.93;;;8.07;;
42018;SDS011;27703;51.980;5.848;2022-11-18T16:23:36;12.73;;;8.25;;
42018;SDS011;27703;51.980;5.848;2022-11-18T16:26:02;11.80;;;6.97;;
42018;SDS011;27703;51.980;5.848;2022-11-18T16:28:28;9.02;;;6.57;;
42018;SDS011;27703;51.980;5.848;2022-11-18T16:30:53;12.63;;;6.55;;
42018;SDS011;27703;51.980;5.848;2022-11-18T16:33:37;11.80;;;6.68;;
42018;SDS011;27703;51.980;5.848;2022-11-18T16:36:03;11.15;;;7.43;;
42018;SDS011;27703;51.980;5.848;2022-11-18T16:38:28;8.82;;;6.22;;
42018;SDS011;27703;51.980;5.848;2022-11-18T16:40:54;11.35;;;7.15;;
42018;SDS011;27703;51.980;5.848;2022-11-18T16:43:20;14.90;;;8.00;;
42018;SDS011;27703;51.980;5.848;2022-11-18T16:45:49;11.07;;;6.63;;
42018;SDS011;27703;51.980;5.848;2022-11-18T16:48:16;10.95;;;6.70;;
42018;SDS011;27703;51.980;5.848;2022-11-18T16:50:42;11.68;;;5.28;;
42018;SDS011;27703;51.980;5.848;2022-11-18T16:53:08;9.55;;;5.28;;
42018;SDS011;27703;51.980;5.848;2022-11-18T16:55:33;7.35;;;5.18;;
42018;SDS011;27703;51.980;5.848;2022-11-18T16:57:59;6.72;;;4.03;;
42018;SDS011;27703;51.980;5.848;2022-11-18T17:00:24;5.68;;;3.35;;
42018;SDS011;27703;51.980;5.848;2022-11-18T17:02:50;6.38;;;3.67;;
42018;SDS011;27703;51.980;5.848;2022-11-18T17:05:15;10.10;;;3.92;;
42018;SDS011;27703;51.980;5.848;2022-11-18T17:07:41;6.78;;;3.47;;
42018;SDS011;27703;51.980;5.848;2022-11-18T17:10:07;8.38;;;5.10;;
42018;SDS011;27703;51.980;5.848;2022-11-18T17:12:44;8.30;;;5.38;;
42018;SDS011;27703;51.980;5.848;2022-11-18T17:15:11;6.05;;;4.85;;
42018;SDS011;27703;51.980;5.848;2022-11-18T17:17:37;11.02;;;4.93;;
42018;SDS011;27703;51.980;5.848;2022-11-18T17:20:03;8.18;;;5.47;;